sensor_id;sensor_type;location;lat;lon;timestamp;pressure;altitude;pressure_sealevel;temperature;humidity
28027;BME280;15344;52.342;-1.290;2024-01-16T00:01:30;99863.92;;;4.85;49.64
28027;BME280;15344;52.342;-1.290;2024-01-16T00:03:55;99864.75;;;4.80;48.63
28027;BME280;15344;52.342;-1.290;2024-01-16T00:06:21;99861.93;;;4.85;47.23
28027;BME280;15344;52.342;-1.290;2024-01-16T00:08:46;99855.90;;;4.63;47.65
28027;BME280;15344;52.342;-1.290;2024-01-16T00:11:12;99853.16;;;4.51;48.24
28027;BME280;15344;52.342;-1.290;2024-01-16T00:13:37;99851.49;;;4.23;49.24
28027;BME280;15344;52.342;-1.290;2024-01-16T00:16:03;99845.31;;;3.73;50.33
28027;BME280;15344;52.342;-1.290;2024-01-16T00:18:28;99843.68;;;4.80;48.40
28027;BME280;15344;52.342;-1.290;2024-01-16T00:20:53;99839.97;;;4.23;50.10
28027;BME280;15344;52.342;-1.290;2024-01-16T00:23:18;99839.28;;;4.65;49.77
28027;BME280;15344;52.342;-1.290;2024-01-16T00:25:44;99839.32;;;4.35;50.47
28027;BME280;15344;52.342;-1.290;2024-01-16T00:28:09;99834.67;;;4.34;49.23
28027;BME280;15344;52.342;-1.290;2024-01-16T00:30:35;99833.77;;;4.62;48.74
28027;BME280;15344;52.342;-1.290;2024-01-16T00:33:01;99829.49;;;4.63;49.19
28027;BME280;15344;52.342;-1.290;2024-01-16T00:35:26;99828.65;;;5.19;48.46
28027;BME280;15344;52.342;-1.290;2024-01-16T00:37:51;99823.85;;;4.95;48.28
28027;BME280;15344;52.342;-1.290;2024-01-16T00:40:16;99817.63;;;4.86;48.89
28027;BME280;15344;52.342;-1.290;2024-01-16T00:42:42;99814.15;;;5.08;49.32
28027;BME280;15344;52.342;-1.290;2024-01-16T00:45:08;99808.92;;;5.22;50.00
28027;BME280;15344;52.342;-1.290;2024-01-16T00:47:33;99807.09;;;5.12;49.88
28027;BME280;15344;52.342;-1.290;2024-01-16T00:49:59;99808.76;;;5.11;49.99
28027;BME280;15344;52.342;-1.290;2024-01-16T00:52:24;99808.85;;;4.29;51.68
28027;BME280;15344;52.342;-1.290;2024-01-16T00:54:49;99806.49;;;5.42;49.38
28027;BME280;15344;52.342;-1.290;2024-01-16T00:57:16;99808.78;;;5.07;48.52
28027;BME280;15344;52.342;-1.290;2024-01-16T00:59:40;99808.24;;;4.72;49.42
28027;BME280;15344;52.342;-1.290;2024-01-16T01:02:05;99808.53;;;4.65;49.33
28027;BME280;15344;52.342;-1.290;2024-01-16T01:04:33;99804.08;;;4.81;49.94
28027;BME280;15344;52.342;-1.290;2024-01-16T01:06:56;99804.52;;;4.47;50.26
28027;BME280;15344;52.342;-1.290;2024-01-16T01:09:22;99801.82;;;4.34;50.09
28027;BME280;15344;52.342;-1.290;2024-01-16T01:11:47;99801.05;;;4.92;49.82
28027;BME280;15344;52.342;-1.290;2024-01-16T01:14:13;99795.68;;;5.14;49.61
28027;BME280;15344;52.342;-1.290;2024-01-16T01:16:38;99800.10;;;5.18;49.03
28027;BME280;15344;52.342;-1.290;2024-01-16T01:19:04;99801.83;;;4.62;49.59
28027;BME280;15344;52.342;-1.290;2024-01-16T01:21:29;99802.95;;;4.16;51.19
28027;BME280;15344;52.342;-1.290;2024-01-16T01:23:54;99803.70;;;4.07;52.64
28027;BME280;15344;52.342;-1.290;2024-01-16T01:26:20;99800.58;;;3.78;52.44
28027;BME280;15344;52.342;-1.290;2024-01-16T01:28:46;99800.68;;;4.30;52.45
28027;BME280;15344;52.342;-1.290;2024-01-16T01:31:11;99800.78;;;4.15;51.99
28027;BME280;15344;52.342;-1.290;2024-01-16T01:33:37;99793.17;;;4.36;52.11
28027;BME280;15344;52.342;-1.290;2024-01-16T01:36:02;99790.05;;;4.35;52.25
28027;BME280;15344;52.342;-1.290;2024-01-16T01:38:28;99787.45;;;3.72;52.74
28027;BME280;15344;52.342;-1.290;2024-01-16T01:40:53;99781.17;;;4.50;52.11
28027;BME280;15344;52.342;-1.290;2024-01-16T01:43:20;99778.72;;;4.99;51.58
28027;BME280;15344;52.342;-1.290;2024-01-16T01:45:44;99776.16;;;4.49;51.54
28027;BME280;15344;52.342;-1.290;2024-01-16T01:48:09;99775.23;;;4.51;51.42
28027;BME280;15344;52.342;-1.290;2024-01-16T01:50:35;99776.40;;;3.98;52.72
28027;BME280;15344;52.342;-1.290;2024-01-16T01:53:01;99773.04;;;3.75;53.22
28027;BME280;15344;52.342;-1.290;2024-01-16T01:55:27;99776.87;;;3.71;53.97
28027;BME280;15344;52.342;-1.290;2024-01-16T01:57:52;99779.06;;;3.88;53.95
28027;BME280;15344;52.342;-1.290;2024-01-16T02:00:17;99776.93;;;3.41;54.08
28027;BME280;15344;52.342;-1.290;2024-01-16T02:02:42;99775.91;;;3.93;53.70
28027;BME280;15344;52.342;-1.290;2024-01-16T02:05:08;99775.23;;;4.20;53.38
28027;BME280;15344;52.342;-1.290;2024-01-16T02:07:33;99775.42;;;4.37;53.17
28027;BME280;15344;52.342;-1.290;2024-01-16T02:09:59;99770.65;;;4.09;53.44
28027;BME280;15344;52.342;-1.290;2024-01-16T02:12:25;99774.99;;;3.69;53.77
28027;BME280;15344;52.342;-1.290;2024-01-16T02:14:50;99772.18;;;3.86;54.42
28027;BME280;15344;52.342;-1.290;2024-01-16T02:17:16;99769.00;;;4.15;53.80
28027;BME280;15344;52.342;-1.290;2024-01-16T02:19:41;99764.16;;;4.00;54.78
28027;BME280;15344;52.342;-1.290;2024-01-16T02:22:10;99758.63;;;4.28;53.99
28027;BME280;15344;52.342;-1.290;2024-01-16T02:24:32;99754.64;;;4.28;53.48
28027;BME280;15344;52.342;-1.290;2024-01-16T02:26:57;99754.63;;;4.01;53.94
28027;BME280;15344;52.342;-1.290;2024-01-16T02:29:23;99757.26;;;3.76;54.07
28027;BME280;15344;52.342;-1.290;2024-01-16T02:31:48;99751.16;;;4.34;53.97
28027;BME280;15344;52.342;-1.290;2024-01-16T02:34:14;99751.00;;;4.46;54.14
28027;BME280;15344;52.342;-1.290;2024-01-16T02:36:39;99751.79;;;4.57;53.80
28027;BME280;15344;52.342;-1.290;2024-01-16T02:39:04;99752.46;;;3.34;56.09
28027;BME280;15344;52.342;-1.290;2024-01-16T02:41:30;99752.55;;;4.02;56.32
28027;BME280;15344;52.342;-1.290;2024-01-16T02:43:55;99747.62;;;3.62;57.31
28027;BME280;15344;52.342;-1.290;2024-01-16T02:46:21;99745.89;;;3.71;57.87
28027;BME280;15344;52.342;-1.290;2024-01-16T02:48:46;99747.75;;;2.79;61.62
28027;BME280;15344;52.342;-1.290;2024-01-16T02:51:12;99752.55;;;2.46;64.33
28027;BME280;15344;52.342;-1.290;2024-01-16T02:53:38;99750.39;;;2.17;66.90
28027;BME280;15344;52.342;-1.290;2024-01-16T02:56:03;99751.99;;;2.12;67.13
28027;BME280;15344;52.342;-1.290;2024-01-16T02:58:29;99748.81;;;2.76;66.15
28027;BME280;15344;52.342;-1.290;2024-01-16T03:00:54;99748.76;;;2.88;65.17
28027;BME280;15344;52.342;-1.290;2024-01-16T03:03:20;99740.22;;;2.80;65.20
28027;BME280;15344;52.342;-1.290;2024-01-16T03:05:45;99738.95;;;2.31;66.94
28027;BME280;15344;52.342;-1.290;2024-01-16T03:08:10;99733.95;;;2.86;66.17
28027;BME280;15344;52.342;-1.290;2024-01-16T03:10:36;99727.94;;;3.03;64.07
28027;BME280;15344;52.342;-1.290;2024-01-16T03:13:02;99726.66;;;3.15;62.42
28027;BME280;15344;52.342;-1.290;2024-01-16T03:15:27;99731.49;;;2.63;64.19
28027;BME280;15344;52.342;-1.290;2024-01-16T03:17:53;99734.54;;;2.25;66.85
28027;BME280;15344;52.342;-1.290;2024-01-16T03:20:18;99730.12;;;2.51;66.55
28027;BME280;15344;52.342;-1.290;2024-01-16T03:22:44;99727.07;;;3.08;65.64
28027;BME280;15344;52.342;-1.290;2024-01-16T03:25:10;99722.00;;;3.35;63.66
28027;BME280;15344;52.342;-1.290;2024-01-16T03:27:35;99715.73;;;2.74;64.23
28027;BME280;15344;52.342;-1.290;2024-01-16T03:30:02;99717.19;;;3.38;63.57
28027;BME280;15344;52.342;-1.290;2024-01-16T03:32:26;99720.78;;;2.92;64.67
28027;BME280;15344;52.342;-1.290;2024-01-16T03:34:52;99710.14;;;3.06;63.24
28027;BME280;15344;52.342;-1.290;2024-01-16T03:37:17;99713.65;;;3.23;62.74
28027;BME280;15344;52.342;-1.290;2024-01-16T03:39:43;99719.10;;;3.58;61.25
28027;BME280;15344;52.342;-1.290;2024-01-16T03:42:08;99724.09;;;2.63;64.18
28027;BME280;15344;52.342;-1.290;2024-01-16T03:44:38;99722.14;;;3.11;63.71
28027;BME280;15344;52.342;-1.290;2024-01-16T03:46:59;99725.39;;;2.05;65.61
28027;BME280;15344;52.342;-1.290;2024-01-16T03:49:25;99723.87;;;1.95;66.81
28027;BME280;15344;52.342;-1.290;2024-01-16T03:51:51;99715.14;;;1.66;69.04
28027;BME280;15344;52.342;-1.290;2024-01-16T03:54:17;99712.49;;;1.96;68.14
28027;BME280;15344;52.342;-1.290;2024-01-16T03:56:42;99708.94;;;2.08;67.25
28027;BME280;15344;52.342;-1.290;2024-01-16T03:59:07;99705.55;;;1.68;69.08
28027;BME280;15344;52.342;-1.290;2024-01-16T04:01:33;99700.74;;;2.29;67.82
28027;BME280;15344;52.342;-1.290;2024-01-16T04:03:58;99692.41;;;2.42;66.68
28027;BME280;15344;52.342;-1.290;2024-01-16T04:06:23;99687.25;;;2.52;66.39
28027;BME280;15344;52.342;-1.290;2024-01-16T04:08:49;99692.02;;;2.36;68.43
28027;BME280;15344;52.342;-1.290;2024-01-16T04:11:15;99694.13;;;2.38;67.88
28027;BME280;15344;52.342;-1.290;2024-01-16T04:13:40;99695.52;;;2.55;66.55
28027;BME280;15344;52.342;-1.290;2024-01-16T04:16:06;99697.51;;;2.45;66.37
28027;BME280;15344;52.342;-1.290;2024-01-16T04:18:35;99692.22;;;2.52;66.70
28027;BME280;15344;52.342;-1.290;2024-01-16T04:20:56;99689.40;;;2.62;66.35
28027;BME280;15344;52.342;-1.290;2024-01-16T04:23:22;99692.21;;;2.28;67.37
28027;BME280;15344;52.342;-1.290;2024-01-16T04:25:47;99677.83;;;2.67;65.92
28027;BME280;15344;52.342;-1.290;2024-01-16T04:28:13;99672.25;;;2.23;67.04
28027;BME280;15344;52.342;-1.290;2024-01-16T04:30:39;99665.40;;;2.06;65.85
28027;BME280;15344;52.342;-1.290;2024-01-16T04:33:04;99663.17;;;2.39;67.04
28027;BME280;15344;52.342;-1.290;2024-01-16T04:35:30;99660.52;;;1.90;67.12
28027;BME280;15344;52.342;-1.290;2024-01-16T04:37:56;99660.28;;;2.50;67.14
28027;BME280;15344;52.342;-1.290;2024-01-16T04:40:21;99652.03;;;2.07;65.21
28027;BME280;15344;52.342;-1.290;2024-01-16T04:42:47;99651.44;;;2.25;66.74
28027;BME280;15344;52.342;-1.290;2024-01-16T04:45:13;99643.59;;;3.09;63.75
28027;BME280;15344;52.342;-1.290;2024-01-16T04:47:39;99645.13;;;3.09;63.69
28027;BME280;15344;52.342;-1.290;2024-01-16T04:50:05;99644.88;;;3.56;61.73
28027;BME280;15344;52.342;-1.290;2024-01-16T04:52:30;99640.03;;;3.86;61.55
28027;BME280;15344;52.342;-1.290;2024-01-16T04:54:56;99635.49;;;2.46;63.42
28027;BME280;15344;52.342;-1.290;2024-01-16T04:57:22;99633.37;;;2.81;63.09
28027;BME280;15344;52.342;-1.290;2024-01-16T04:59:47;99622.46;;;2.77;64.37
28027;BME280;15344;52.342;-1.290;2024-01-16T05:02:13;99623.43;;;2.70;65.06
28027;BME280;15344;52.342;-1.290;2024-01-16T05:04:39;99625.20;;;3.10;63.08
28027;BME280;15344;52.342;-1.290;2024-01-16T05:07:05;99623.91;;;3.35;62.54
28027;BME280;15344;52.342;-1.290;2024-01-16T05:09:31;99622.57;;;3.13;62.93
28027;BME280;15344;52.342;-1.290;2024-01-16T05:11:56;99625.56;;;2.82;64.73
28027;BME280;15344;52.342;-1.290;2024-01-16T05:14:22;99622.69;;;3.71;62.58
28027;BME280;15344;52.342;-1.290;2024-01-16T05:16:47;99618.79;;;3.58;61.51
28027;BME280;15344;52.342;-1.290;2024-01-16T05:19:13;99617.18;;;3.86;60.68
28027;BME280;15344;52.342;-1.290;2024-01-16T05:21:40;99615.84;;;3.54;60.95
28027;BME280;15344;52.342;-1.290;2024-01-16T05:24:05;99613.41;;;3.47;60.83
28027;BME280;15344;52.342;-1.290;2024-01-16T05:26:30;99608.53;;;3.76;61.12
28027;BME280;15344;52.342;-1.290;2024-01-16T05:28:56;99605.59;;;3.36;61.07
28027;BME280;15344;52.342;-1.290;2024-01-16T05:31:21;99597.88;;;3.10;62.87
28027;BME280;15344;52.342;-1.290;2024-01-16T05:33:47;99596.85;;;3.47;61.89
28027;BME280;15344;52.342;-1.290;2024-01-16T05:36:12;99593.04;;;3.30;63.34
28027;BME280;15344;52.342;-1.290;2024-01-16T05:38:38;99595.61;;;3.43;62.96
28027;BME280;15344;52.342;-1.290;2024-01-16T05:41:04;99593.90;;;3.34;62.84
28027;BME280;15344;52.342;-1.290;2024-01-16T05:43:29;99589.88;;;2.70;64.22
28027;BME280;15344;52.342;-1.290;2024-01-16T05:45:55;99587.91;;;2.92;64.05
28027;BME280;15344;52.342;-1.290;2024-01-16T05:48:21;99581.32;;;2.84;63.95
28027;BME280;15344;52.342;-1.290;2024-01-16T05:50:46;99581.32;;;3.37;63.28
28027;BME280;15344;52.342;-1.290;2024-01-16T05:53:12;99579.70;;;2.40;66.24
28027;BME280;15344;52.342;-1.290;2024-01-16T05:55:38;99583.31;;;2.15;67.17
28027;BME280;15344;52.342;-1.290;2024-01-16T05:58:04;99584.63;;;2.67;67.47
28027;BME280;15344;52.342;-1.290;2024-01-16T06:00:29;99579.45;;;2.76;66.63
28027;BME280;15344;52.342;-1.290;2024-01-16T06:02:55;99577.78;;;2.88;66.14
28027;BME280;15344;52.342;-1.290;2024-01-16T06:05:21;99577.49;;;2.38;66.46
28027;BME280;15344;52.342;-1.290;2024-01-16T06:07:46;99583.91;;;1.68;70.47
28027;BME280;15344;52.342;-1.290;2024-01-16T06:10:12;99580.07;;;2.64;67.37
28027;BME280;15344;52.342;-1.290;2024-01-16T06:12:37;99582.77;;;2.47;66.61
28027;BME280;15344;52.342;-1.290;2024-01-16T06:15:04;99582.24;;;2.39;67.24
28027;BME280;15344;52.342;-1.290;2024-01-16T06:17:29;99579.97;;;2.82;65.96
28027;BME280;15344;52.342;-1.290;2024-01-16T06:19:55;99575.46;;;2.78;65.14
28027;BME280;15344;52.342;-1.290;2024-01-16T06:22:21;99573.04;;;2.51;64.26
28027;BME280;15344;52.342;-1.290;2024-01-16T06:24:46;99569.33;;;2.93;64.63
28027;BME280;15344;52.342;-1.290;2024-01-16T06:27:12;99570.66;;;3.06;63.34
28027;BME280;15344;52.342;-1.290;2024-01-16T06:29:38;99563.81;;;2.70;64.06
28027;BME280;15344;52.342;-1.290;2024-01-16T06:32:04;99561.49;;;2.93;63.52
28027;BME280;15344;52.342;-1.290;2024-01-16T06:34:29;99557.17;;;2.27;64.38
28027;BME280;15344;52.342;-1.290;2024-01-16T06:36:55;99562.95;;;2.53;64.60
28027;BME280;15344;52.342;-1.290;2024-01-16T06:39:21;99563.68;;;2.82;64.33
28027;BME280;15344;52.342;-1.290;2024-01-16T06:41:46;99561.51;;;2.48;66.16
28027;BME280;15344;52.342;-1.290;2024-01-16T06:44:12;99559.22;;;2.95;64.53
28027;BME280;15344;52.342;-1.290;2024-01-16T06:46:38;99555.85;;;2.87;64.64
28027;BME280;15344;52.342;-1.290;2024-01-16T06:49:03;99554.53;;;2.57;66.06
28027;BME280;15344;52.342;-1.290;2024-01-16T06:51:30;99553.64;;;2.56;65.38
28027;BME280;15344;52.342;-1.290;2024-01-16T06:53:55;99557.91;;;2.68;66.38
28027;BME280;15344;52.342;-1.290;2024-01-16T06:56:21;99558.30;;;2.69;65.70
28027;BME280;15344;52.342;-1.290;2024-01-16T06:58:47;99558.90;;;2.91;66.08
28027;BME280;15344;52.342;-1.290;2024-01-16T07:01:12;99562.71;;;2.56;66.93
28027;BME280;15344;52.342;-1.290;2024-01-16T07:03:38;99557.38;;;3.26;64.78
28027;BME280;15344;52.342;-1.290;2024-01-16T07:06:04;99549.58;;;3.60;62.80
28027;BME280;15344;52.342;-1.290;2024-01-16T07:08:29;99550.37;;;2.62;65.41
28027;BME280;15344;52.342;-1.290;2024-01-16T07:10:55;99552.25;;;2.69;66.36
28027;BME280;15344;52.342;-1.290;2024-01-16T07:13:21;99546.20;;;2.28;69.59
28027;BME280;15344;52.342;-1.290;2024-01-16T07:15:46;99543.74;;;3.04;67.60
28027;BME280;15344;52.342;-1.290;2024-01-16T07:18:12;99537.70;;;2.82;67.55
28027;BME280;15344;52.342;-1.290;2024-01-16T07:20:38;99535.54;;;2.73;69.18
28027;BME280;15344;52.342;-1.290;2024-01-16T07:23:04;99531.40;;;2.31;70.36
28027;BME280;15344;52.342;-1.290;2024-01-16T07:25:29;99523.64;;;2.22;71.29
28027;BME280;15344;52.342;-1.290;2024-01-16T07:27:55;99524.59;;;2.87;70.06
28027;BME280;15344;52.342;-1.290;2024-01-16T07:30:21;99523.88;;;2.70;68.56
28027;BME280;15344;52.342;-1.290;2024-01-16T07:32:47;99521.21;;;2.04;69.92
28027;BME280;15344;52.342;-1.290;2024-01-16T07:35:12;99523.18;;;2.89;68.73
28027;BME280;15344;52.342;-1.290;2024-01-16T07:37:38;99526.08;;;2.76;70.12
28027;BME280;15344;52.342;-1.290;2024-01-16T07:40:05;99529.14;;;3.10;68.93
28027;BME280;15344;52.342;-1.290;2024-01-16T07:42:30;99525.67;;;3.07;68.91
28027;BME280;15344;52.342;-1.290;2024-01-16T07:44:55;99527.07;;;2.76;69.65
28027;BME280;15344;52.342;-1.290;2024-01-16T07:47:21;99526.68;;;2.99;69.94
28027;BME280;15344;52.342;-1.290;2024-01-16T07:49:47;99521.41;;;1.80;72.60
28027;BME280;15344;52.342;-1.290;2024-01-16T07:52:13;99515.06;;;2.60;71.35
28027;BME280;15344;52.342;-1.290;2024-01-16T07:54:38;99511.49;;;2.84;70.84
28027;BME280;15344;52.342;-1.290;2024-01-16T07:57:04;99506.90;;;3.06;68.79
28027;BME280;15344;52.342;-1.290;2024-01-16T07:59:30;99500.89;;;3.13;67.61
28027;BME280;15344;52.342;-1.290;2024-01-16T08:01:55;99505.88;;;3.48;67.72
28027;BME280;15344;52.342;-1.290;2024-01-16T08:04:21;99506.67;;;2.81;67.91
28027;BME280;15344;52.342;-1.290;2024-01-16T08:06:47;99503.66;;;3.73;65.74
28027;BME280;15344;52.342;-1.290;2024-01-16T08:09:12;99495.82;;;4.07;63.17
28027;BME280;15344;52.342;-1.290;2024-01-16T08:11:38;99491.53;;;4.16;64.40
28027;BME280;15344;52.342;-1.290;2024-01-16T08:14:04;99491.60;;;4.37;63.47
28027;BME280;15344;52.342;-1.290;2024-01-16T08:16:30;99490.61;;;3.76;64.63
28027;BME280;15344;52.342;-1.290;2024-01-16T08:18:55;99484.26;;;3.76;65.00
28027;BME280;15344;52.342;-1.290;2024-01-16T08:21:21;99486.88;;;3.24;67.89
28027;BME280;15344;52.342;-1.290;2024-01-16T08:23:47;99493.65;;;3.37;68.05
28027;BME280;15344;52.342;-1.290;2024-01-16T08:26:12;99491.59;;;3.39;67.86
28027;BME280;15344;52.342;-1.290;2024-01-16T08:28:38;99491.75;;;3.73;67.84
28027;BME280;15344;52.342;-1.290;2024-01-16T08:31:04;99491.30;;;3.46;69.13
28027;BME280;15344;52.342;-1.290;2024-01-16T08:33:30;99488.40;;;3.19;71.68
28027;BME280;15344;52.342;-1.290;2024-01-16T08:35:55;99487.75;;;2.60;74.13
28027;BME280;15344;52.342;-1.290;2024-01-16T08:38:21;99490.22;;;2.79;73.38
28027;BME280;15344;52.342;-1.290;2024-01-16T08:40:47;99487.86;;;3.35;71.08
28027;BME280;15344;52.342;-1.290;2024-01-16T08:43:12;99487.68;;;1.82;73.34
28027;BME280;15344;52.342;-1.290;2024-01-16T08:45:38;99488.28;;;2.71;72.54
28027;BME280;15344;52.342;-1.290;2024-01-16T08:48:04;99484.34;;;3.17;71.17
28027;BME280;15344;52.342;-1.290;2024-01-16T08:50:29;99484.21;;;2.39;74.71
28027;BME280;15344;52.342;-1.290;2024-01-16T08:52:55;99484.64;;;2.22;77.03
28027;BME280;15344;52.342;-1.290;2024-01-16T08:55:21;99482.07;;;3.04;73.45
28027;BME280;15344;52.342;-1.290;2024-01-16T08:57:46;99479.96;;;2.97;73.38
28027;BME280;15344;52.342;-1.290;2024-01-16T09:00:13;99473.18;;;3.28;73.64
28027;BME280;15344;52.342;-1.290;2024-01-16T09:02:38;99467.94;;;3.63;71.42
28027;BME280;15344;52.342;-1.290;2024-01-16T09:05:04;99471.31;;;2.42;74.41
28027;BME280;15344;52.342;-1.290;2024-01-16T09:07:29;99461.83;;;3.44;71.86
28027;BME280;15344;52.342;-1.290;2024-01-16T09:09:55;99459.73;;;3.40;72.08
28027;BME280;15344;52.342;-1.290;2024-01-16T09:12:20;99462.20;;;3.24;73.12
28027;BME280;15344;52.342;-1.290;2024-01-16T09:14:45;99463.22;;;2.66;75.60
28027;BME280;15344;52.342;-1.290;2024-01-16T09:17:11;99462.79;;;3.04;75.51
28027;BME280;15344;52.342;-1.290;2024-01-16T09:19:37;99469.51;;;2.74;77.93
28027;BME280;15344;52.342;-1.290;2024-01-16T09:22:02;99467.12;;;2.96;78.73
28027;BME280;15344;52.342;-1.290;2024-01-16T09:24:28;99462.04;;;3.01;78.20
28027;BME280;15344;52.342;-1.290;2024-01-16T09:26:54;99456.81;;;3.01;77.52
28027;BME280;15344;52.342;-1.290;2024-01-16T09:29:19;99459.89;;;2.94;78.89
28027;BME280;15344;52.342;-1.290;2024-01-16T09:31:45;99453.94;;;3.32;77.06
28027;BME280;15344;52.342;-1.290;2024-01-16T09:34:11;99453.01;;;3.08;78.79
28027;BME280;15344;52.342;-1.290;2024-01-16T09:36:37;99449.60;;;3.00;77.33
28027;BME280;15344;52.342;-1.290;2024-01-16T09:39:04;99458.87;;;2.56;81.92
28027;BME280;15344;52.342;-1.290;2024-01-16T09:41:28;99455.15;;;2.62;81.41
28027;BME280;15344;52.342;-1.290;2024-01-16T09:43:54;99454.16;;;2.95;80.67
28027;BME280;15344;52.342;-1.290;2024-01-16T09:46:20;99450.53;;;2.63;81.40
28027;BME280;15344;52.342;-1.290;2024-01-16T09:48:45;99453.78;;;2.65;82.77
28027;BME280;15344;52.342;-1.290;2024-01-16T09:51:11;99455.99;;;2.87;82.36
28027;BME280;15344;52.342;-1.290;2024-01-16T09:53:36;99451.10;;;2.93;82.28
28027;BME280;15344;52.342;-1.290;2024-01-16T09:56:03;99452.32;;;2.74;82.94
28027;BME280;15344;52.342;-1.290;2024-01-16T09:58:28;99446.84;;;2.75;83.39
28027;BME280;15344;52.342;-1.290;2024-01-16T10:00:53;99448.28;;;2.83;82.37
28027;BME280;15344;52.342;-1.290;2024-01-16T10:03:19;99445.66;;;2.40;82.20
28027;BME280;15344;52.342;-1.290;2024-01-16T10:05:45;99442.04;;;2.50;85.06
28027;BME280;15344;52.342;-1.290;2024-01-16T10:08:10;99441.12;;;2.60;84.91
28027;BME280;15344;52.342;-1.290;2024-01-16T10:10:35;99431.24;;;3.75;80.02
28027;BME280;15344;52.342;-1.290;2024-01-16T10:13:00;99428.57;;;3.39;80.87
28027;BME280;15344;52.342;-1.290;2024-01-16T10:15:26;99424.33;;;3.28;80.59
28027;BME280;15344;52.342;-1.290;2024-01-16T10:17:51;99422.21;;;3.62;77.66
28027;BME280;15344;52.342;-1.290;2024-01-16T10:22:52;99416.80;;;3.58;77.65
28027;BME280;15344;52.342;-1.290;2024-01-16T10:25:09;99416.51;;;3.15;79.24
28027;BME280;15344;52.342;-1.290;2024-01-16T10:27:33;99417.87;;;2.79;82.96
28027;BME280;15344;52.342;-1.290;2024-01-16T10:29:59;99409.38;;;2.98;81.79
28027;BME280;15344;52.342;-1.290;2024-01-16T10:32:27;99409.56;;;3.12;80.12
28027;BME280;15344;52.342;-1.290;2024-01-16T10:34:49;99406.57;;;3.46;78.48
28027;BME280;15344;52.342;-1.290;2024-01-16T10:37:15;99401.36;;;3.17;80.16
28027;BME280;15344;52.342;-1.290;2024-01-16T10:39:40;99393.22;;;3.46;79.87
28027;BME280;15344;52.342;-1.290;2024-01-16T10:42:06;99391.50;;;3.37;78.87
28027;BME280;15344;52.342;-1.290;2024-01-16T10:44:31;99390.31;;;3.17;79.82
28027;BME280;15344;52.342;-1.290;2024-01-16T10:49:23;99389.06;;;4.47;74.00
28027;BME280;15344;52.342;-1.290;2024-01-16T10:51:50;99383.44;;;3.50;74.85
28027;BME280;15344;52.342;-1.290;2024-01-16T10:54:14;99381.47;;;4.23;72.50
28027;BME280;15344;52.342;-1.290;2024-01-16T10:56:44;99379.82;;;3.88;74.42
28027;BME280;15344;52.342;-1.290;2024-01-16T10:59:11;99376.73;;;4.43;73.28
28027;BME280;15344;52.342;-1.290;2024-01-16T11:01:31;99375.60;;;3.78;74.06
28027;BME280;15344;52.342;-1.290;2024-01-16T11:03:57;99373.78;;;4.18;74.54
28027;BME280;15344;52.342;-1.290;2024-01-16T11:06:23;99369.37;;;4.16;74.57
28027;BME280;15344;52.342;-1.290;2024-01-16T11:08:49;99360.39;;;3.09;77.70
28027;BME280;15344;52.342;-1.290;2024-01-16T11:11:14;99365.47;;;3.99;76.51
28027;BME280;15344;52.342;-1.290;2024-01-16T11:13:40;99365.87;;;3.78;76.74
28027;BME280;15344;52.342;-1.290;2024-01-16T11:16:05;99359.34;;;4.36;73.90
28027;BME280;15344;52.342;-1.290;2024-01-16T11:18:31;99353.43;;;4.88;71.47
28027;BME280;15344;52.342;-1.290;2024-01-16T11:20:56;99347.26;;;5.23;70.06
28027;BME280;15344;52.342;-1.290;2024-01-16T11:23:21;99343.91;;;5.29;69.27
28027;BME280;15344;52.342;-1.290;2024-01-16T11:25:47;99345.02;;;5.00;70.24
28027;BME280;15344;52.342;-1.290;2024-01-16T11:28:14;99340.23;;;5.23;70.30
28027;BME280;15344;52.342;-1.290;2024-01-16T11:30:39;99342.15;;;4.63;71.16
28027;BME280;15344;52.342;-1.290;2024-01-16T11:33:04;99341.66;;;4.93;69.51
28027;BME280;15344;52.342;-1.290;2024-01-16T11:35:33;99340.72;;;5.18;69.23
28027;BME280;15344;52.342;-1.290;2024-01-16T11:37:55;99339.21;;;4.97;71.02
28027;BME280;15344;52.342;-1.290;2024-01-16T11:40:21;99333.64;;;5.18;71.40
28027;BME280;15344;52.342;-1.290;2024-01-16T11:42:46;99329.64;;;5.09;71.71
28027;BME280;15344;52.342;-1.290;2024-01-16T11:47:37;99330.54;;;4.99;70.84
28027;BME280;15344;52.342;-1.290;2024-01-16T11:50:08;99329.90;;;5.51;69.60
28027;BME280;15344;52.342;-1.290;2024-01-16T11:54:54;99327.35;;;5.01;73.27
28027;BME280;15344;52.342;-1.290;2024-01-16T11:57:34;99330.35;;;5.11;73.34
28027;BME280;15344;52.342;-1.290;2024-01-16T11:59:59;99327.19;;;5.43;73.02
28027;BME280;15344;52.342;-1.290;2024-01-16T12:02:17;99325.67;;;5.42;71.30
28027;BME280;15344;52.342;-1.290;2024-01-16T12:04:36;99323.42;;;6.03;70.88
28027;BME280;15344;52.342;-1.290;2024-01-16T12:07:01;99320.99;;;5.36;71.01
28027;BME280;15344;52.342;-1.290;2024-01-16T12:09:28;99315.65;;;6.09;69.09
28027;BME280;15344;52.342;-1.290;2024-01-16T12:11:56;99311.39;;;6.09;69.43
28027;BME280;15344;52.342;-1.290;2024-01-16T12:14:18;99307.45;;;5.61;69.77
28027;BME280;15344;52.342;-1.290;2024-01-16T12:16:44;99298.94;;;5.50;70.98
28027;BME280;15344;52.342;-1.290;2024-01-16T12:19:10;99294.16;;;5.20;71.36
28027;BME280;15344;52.342;-1.290;2024-01-16T12:21:38;99283.11;;;5.40;71.34
28027;BME280;15344;52.342;-1.290;2024-01-16T12:24:00;99276.94;;;5.26;71.54
28027;BME280;15344;52.342;-1.290;2024-01-16T12:26:25;99269.47;;;5.61;70.85
28027;BME280;15344;52.342;-1.290;2024-01-16T12:28:52;99256.40;;;5.96;69.16
28027;BME280;15344;52.342;-1.290;2024-01-16T12:31:18;99247.87;;;6.00;68.82
28027;BME280;15344;52.342;-1.290;2024-01-16T12:33:42;99240.28;;;5.26;70.30
28027;BME280;15344;52.342;-1.290;2024-01-16T12:36:07;99232.50;;;5.35;71.27
28027;BME280;15344;52.342;-1.290;2024-01-16T12:38:33;99229.24;;;5.27;71.78
28027;BME280;15344;52.342;-1.290;2024-01-16T12:40:59;99218.99;;;5.09;72.34
28027;BME280;15344;52.342;-1.290;2024-01-16T12:43:24;99217.37;;;4.99;72.50
28027;BME280;15344;52.342;-1.290;2024-01-16T12:45:55;99218.65;;;5.63;70.39
28027;BME280;15344;52.342;-1.290;2024-01-16T12:48:22;99206.39;;;4.94;71.41
28027;BME280;15344;52.342;-1.290;2024-01-16T12:50:40;99204.47;;;5.12;72.88
28027;BME280;15344;52.342;-1.290;2024-01-16T12:53:08;99201.83;;;5.00;73.71
28027;BME280;15344;52.342;-1.290;2024-01-16T12:55:33;99196.20;;;5.24;73.88
28027;BME280;15344;52.342;-1.290;2024-01-16T13:00:24;99177.22;;;5.10;74.56
28027;BME280;15344;52.342;-1.290;2024-01-16T13:02:50;99167.15;;;5.37;74.22